Time;durP1;ratioP1;P1;durP2;ratioP2;P2;SDS_P1;SDS_P2;PMS_P1;PMS_P2;Temp;Humidity;BMP_temperature;BMP_pressure;BME280_temperature;BME280_humidity;BME280_pressure;Samples;Min_cycle;Max_cycle;Signal;HPM_P1;HPM_P2
2023/06/12 00:02:09;;;;;;;7.43;5.60;;;;;;;;;;5053806;28;20052;-79
2023/06/12 00:04:35;;;;;;;9.82;5.65;;;;;;;;;;5036285;28;20120;-79
2023/06/12 00:07:02;;;;;;;9.45;5.80;;;;;;;;;;5059058;28;20119;-79
2023/06/12 00:09:28;;;;;;;9.98;5.85;;;;;;;;;;5054237;28;20065;-79
2023/06/12 00:11:54;;;;;;;9.02;5.53;;;;;;;;;;5056850;28;20098;-79
2023/06/12 00:14:20;;;;;;;7.97;5.40;;;;;;;;;;5051970;28;20048;-79
2023/06/12 00:16:47;;;;;;;10.27;5.18;;;;;;;;;;5057719;28;20504;-79
2023/06/12 00:19:14;;;;;;;8.77;5.45;;;;;;;;;;5061735;28;20511;-79
2023/06/12 00:21:40;;;;;;;8.18;5.25;;;;;;;;;;5052929;28;20043;-79
2023/06/12 00:24:08;;;;;;;7.35;5.32;;;;;;;;;;5056115;28;20045;-79
2023/06/12 00:26:37;;;;;;;7.50;4.70;;;;;;;;;;5057643;28;20032;-79
2023/06/12 00:29:04;;;;;;;8.90;5.03;;;;;;;;;;5043508;28;20426;-79
2023/06/12 00:31:30;;;;;;;9.40;4.43;;;;;;;;;;5052689;28;20037;-79
2023/06/12 00:33:56;;;;;;;6.32;4.60;;;;;;;;;;5036626;28;20049;-79
2023/06/12 00:36:22;;;;;;;8.02;4.60;;;;;;;;;;5051685;28;20052;-79
2023/06/12 00:38:51;;;;;;;9.10;4.85;;;;;;;;;;5036715;28;20052;-79
2023/06/12 00:41:18;;;;;;;8.13;4.68;;;;;;;;;;5035123;28;20456;-78
2023/06/12 00:43:44;;;;;;;10.02;4.57;;;;;;;;;;5052175;28;20040;-79
2023/06/12 00:46:11;;;;;;;7.57;4.70;;;;;;;;;;5037899;28;20120;-79
2023/06/12 00:48:38;;;;;;;8.07;4.65;;;;;;;;;;5053752;28;20053;-79
2023/06/12 00:51:08;;;;;;;5.82;4.40;;;;;;;;;;5051450;28;20048;-79
2023/06/12 00:53:34;;;;;;;7.05;4.53;;;;;;;;;;5051977;28;20041;-79
2023/06/12 00:56:00;;;;;;;6.35;4.50;;;;;;;;;;5051807;28;20051;-78
2023/06/12 00:58:27;;;;;;;7.72;4.60;;;;;;;;;;5051358;28;20091;-78
2023/06/12 01:00:54;;;;;;;7.40;3.88;;;;;;;;;;5035815;28;20076;-79
2023/06/12 01:03:22;;;;;;;10.93;4.40;;;;;;;;;;5069526;28;20120;-79
2023/06/12 01:05:48;;;;;;;8.48;4.45;;;;;;;;;;5056712;28;20048;-78
2023/06/12 01:08:32;;;;;;;9.20;4.25;;;;;;;;;;5056418;28;20051;-79
2023/06/12 01:10:58;;;;;;;8.23;4.03;;;;;;;;;;5049893;28;20508;-79
2023/06/12 01:13:24;;;;;;;7.70;4.32;;;;;;;;;;5039108;28;20401;-79
2023/06/12 01:15:50;;;;;;;7.28;4.68;;;;;;;;;;5037105;28;20051;-79
2023/06/12 01:18:21;;;;;;;8.90;4.50;;;;;;;;;;5057333;28;20056;-78
2023/06/12 01:20:48;;;;;;;7.75;4.03;;;;;;;;;;5051756;28;20048;-78
2023/06/12 01:23:23;;;;;;;8.32;3.95;;;;;;;;;;5058462;28;20044;-78
2023/06/12 01:26:08;;;;;;;18.65;4.47;;;;;;;;;;5056298;28;20515;-78
2023/06/12 01:28:41;;;;;;;10.68;4.25;;;;;;;;;;5060093;28;20040;-79
2023/06/12 01:31:13;;;;;;;9.60;4.03;;;;;;;;;;5059229;28;20049;-79
2023/06/12 01:33:41;;;;;;;7.45;4.10;;;;;;;;;;5051146;28;20045;-79
2023/06/12 01:36:09;;;;;;;11.60;4.22;;;;;;;;;;5051311;28;20072;-79
2023/06/12 01:38:36;;;;;;;8.20;4.28;;;;;;;;;;5050912;28;20048;-79
2023/06/12 01:41:03;;;;;;;5.38;3.92;;;;;;;;;;5051024;28;20099;-79
2023/06/12 01:43:30;;;;;;;8.02;4.03;;;;;;;;;;5050662;28;20049;-79
2023/06/12 01:45:56;;;;;;;8.48;4.30;;;;;;;;;;5051273;28;20383;-79
2023/06/12 01:48:22;;;;;;;8.35;3.75;;;;;;;;;;5050628;28;20498;-79
2023/06/12 01:50:48;;;;;;;11.93;4.00;;;;;;;;;;5050637;28;20118;-79
2023/06/12 01:53:15;;;;;;;9.80;3.72;;;;;;;;;;5050936;28;20040;-79
2023/06/12 01:55:41;;;;;;;10.40;4.05;;;;;;;;;;5051022;28;20055;-79
2023/06/12 01:58:08;;;;;;;8.35;4.18;;;;;;;;;;5052118;28;20039;-79
2023/06/12 02:00:35;;;;;;;6.40;3.78;;;;;;;;;;5050590;28;20041;-79
2023/06/12 02:03:02;;;;;;;10.23;4.00;;;;;;;;;;5051234;28;20125;-79
2023/06/12 02:05:28;;;;;;;7.53;4.30;;;;;;;;;;5036225;28;20072;-79
2023/06/12 02:07:54;;;;;;;6.38;4.25;;;;;;;;;;5051020;28;20114;-79
2023/06/12 02:10:21;;;;;;;8.30;4.10;;;;;;;;;;5033770;28;20037;-79
2023/06/12 02:12:47;;;;;;;8.43;4.13;;;;;;;;;;5018207;28;20037;-78
2023/06/12 02:15:13;;;;;;;8.52;4.18;;;;;;;;;;5051844;28;20040;-78
2023/06/12 02:17:39;;;;;;;7.97;3.75;;;;;;;;;;5036497;28;20375;-79
2023/06/12 02:20:06;;;;;;;8.35;4.05;;;;;;;;;;5055803;28;20056;-79
2023/06/12 02:22:32;;;;;;;8.90;4.60;;;;;;;;;;5039404;28;20497;-79
2023/06/12 02:24:58;;;;;;;6.78;3.78;;;;;;;;;;5039293;28;20120;-79
2023/06/12 02:27:24;;;;;;;5.45;3.50;;;;;;;;;;5056294;28;20094;-79
2023/06/12 02:29:51;;;;;;;7.85;3.90;;;;;;;;;;5057178;28;20128;-79
2023/06/12 02:32:17;;;;;;;9.98;3.70;;;;;;;;;;5060057;28;20085;-79
2023/06/12 02:34:43;;;;;;;8.50;3.67;;;;;;;;;;5039414;28;20036;-79
2023/06/12 02:37:10;;;;;;;6.10;3.30;;;;;;;;;;5054698;28;20513;-79
2023/06/12 02:39:36;;;;;;;7.68;3.67;;;;;;;;;;5065494;28;20132;-79
2023/06/12 02:42:03;;;;;;;7.78;3.95;;;;;;;;;;5054373;28;20064;-79
2023/06/12 02:44:29;;;;;;;8.00;3.72;;;;;;;;;;5037552;28;20043;-79
2023/06/12 02:46:55;;;;;;;9.98;3.70;;;;;;;;;;5056795;28;20128;-79
2023/06/12 02:49:22;;;;;;;9.27;3.85;;;;;;;;;;5058941;28;20045;-79
2023/06/12 02:51:48;;;;;;;9.77;3.50;;;;;;;;;;5062258;28;20044;-79
2023/06/12 02:54:15;;;;;;;11.05;4.05;;;;;;;;;;5056655;28;20433;-79
2023/06/12 02:56:44;;;;;;;7.07;3.67;;;;;;;;;;5065947;28;20198;-79
2023/06/12 02:59:10;;;;;;;7.78;4.10;;;;;;;;;;5060619;28;20409;-79
2023/06/12 03:01:41;;;;;;;9.02;3.40;;;;;;;;;;5048176;28;20065;-79
2023/06/12 03:04:10;;;;;;;7.03;3.42;;;;;;;;;;5053945;28;20045;-79
2023/06/12 03:06:36;;;;;;;8.30;3.55;;;;;;;;;;5052791;28;20120;-79
2023/06/12 03:09:03;;;;;;;7.38;3.70;;;;;;;;;;5039005;28;20045;-78
2023/06/12 03:11:30;;;;;;;8.85;3.40;;;;;;;;;;5059973;28;20094;-80
2023/06/12 03:13:56;;;;;;;6.05;3.53;;;;;;;;;;5053728;28;20123;-82
2023/06/12 03:16:22;;;;;;;8.13;3.75;;;;;;;;;;5055155;28;20123;-81
2023/06/12 03:18:48;;;;;;;9.15;3.60;;;;;;;;;;5055126;28;20048;-81
2023/06/12 03:21:15;;;;;;;6.22;3.60;;;;;;;;;;5057269;28;20048;-81
2023/06/12 03:23:41;;;;;;;6.50;3.20;;;;;;;;;;5059934;28;20052;-81
2023/06/12 03:26:08;;;;;;;7.20;3.30;;;;;;;;;;5037285;28;20041;-81
2023/06/12 03:28:37;;;;;;;6.97;3.05;;;;;;;;;;5056519;28;20079;-82
2023/06/12 03:31:03;;;;;;;6.97;3.35;;;;;;;;;;5053245;28;20033;-81
2023/06/12 03:33:29;;;;;;;10.45;3.40;;;;;;;;;;5036651;28;20045;-82
2023/06/12 03:35:55;;;;;;;5.82;3.63;;;;;;;;;;5037106;28;20052;-82
2023/06/12 03:38:21;;;;;;;6.43;3.63;;;;;;;;;;5054839;28;20128;-81
2023/06/12 03:40:47;;;;;;;9.20;3.50;;;;;;;;;;5053058;28;21419;-81
2023/06/12 03:43:13;;;;;;;6.68;3.58;;;;;;;;;;5036413;28;20044;-81
2023/06/12 03:45:39;;;;;;;9.98;3.45;;;;;;;;;;5053075;28;20073;-81
2023/06/12 03:48:05;;;;;;;7.97;3.20;;;;;;;;;;5037206;28;20493;-81
2023/06/12 03:50:32;;;;;;;8.43;3.55;;;;;;;;;;5036048;28;20052;-82
2023/06/12 03:52:58;;;;;;;8.40;3.13;;;;;;;;;;5022620;28;20116;-82
2023/06/12 03:55:24;;;;;;;7.03;3.47;;;;;;;;;;5053449;28;20490;-82
2023/06/12 03:57:50;;;;;;;6.15;3.10;;;;;;;;;;5036068;28;20037;-81
2023/06/12 04:00:17;;;;;;;9.05;3.95;;;;;;;;;;5053091;28;20056;-81
2023/06/12 04:02:43;;;;;;;7.68;3.30;;;;;;;;;;5048003;28;20036;-81
2023/06/12 04:05:09;;;;;;;10.55;3.50;;;;;;;;;;5051582;28;20055;-80
2023/06/12 04:07:38;;;;;;;6.30;3.63;;;;;;;;;;5036054;28;20524;-80
2023/06/12 04:10:05;;;;;;;8.32;3.53;;;;;;;;;;5036236;28;20037;-80
2023/06/12 04:12:31;;;;;;;8.75;3.60;;;;;;;;;;5052409;28;20076;-81
2023/06/12 04:14:58;;;;;;;7.00;3.55;;;;;;;;;;5052642;28;20041;-81
2023/06/12 04:17:24;;;;;;;8.32;3.63;;;;;;;;;;5052730;28;20367;-81
2023/06/12 04:19:50;;;;;;;7.50;3.40;;;;;;;;;;5052645;28;20067;-81
2023/06/12 04:22:16;;;;;;;9.98;3.13;;;;;;;;;;5052369;28;20084;-81
2023/06/12 04:24:43;;;;;;;9.32;3.28;;;;;;;;;;5051521;28;20041;-81
2023/06/12 04:27:10;;;;;;;5.53;3.05;;;;;;;;;;5052544;28;20037;-81
2023/06/12 04:29:42;;;;;;;8.45;3.40;;;;;;;;;;5035667;28;20036;-81
2023/06/12 04:32:13;;;;;;;8.90;3.10;;;;;;;;;;5051675;28;20086;-81
2023/06/12 04:34:43;;;;;;;7.30;3.40;;;;;;;;;;5053778;28;20044;-81
2023/06/12 04:37:13;;;;;;;9.30;3.58;;;;;;;;;;5035181;28;20127;-80
2023/06/12 04:39:43;;;;;;;7.47;3.33;;;;;;;;;;5034091;28;20442;-80
2023/06/12 04:42:10;;;;;;;6.57;3.30;;;;;;;;;;5052160;28;20048;-79
2023/06/12 04:44:39;;;;;;;9.27;3.22;;;;;;;;;;5045889;28;20499;-80
2023/06/12 04:47:08;;;;;;;7.18;3.20;;;;;;;;;;5044507;28;20090;-78
2023/06/12 04:49:41;;;;;;;10.27;3.33;;;;;;;;;;5052028;28;20505;-77
2023/06/12 04:52:12;;;;;;;7.35;3.35;;;;;;;;;;5052658;28;20454;-78
2023/06/12 04:54:44;;;;;;;7.50;3.13;;;;;;;;;;5049490;28;20045;-78
2023/06/12 04:57:16;;;;;;;7.05;3.83;;;;;;;;;;5052474;28;20049;-78
2023/06/12 04:59:44;;;;;;;6.82;3.63;;;;;;;;;;5051786;28;20128;-78
2023/06/12 05:02:11;;;;;;;7.10;3.47;;;;;;;;;;5051665;28;20055;-77
2023/06/12 05:04:37;;;;;;;5.20;3.17;;;;;;;;;;5052058;28;20469;-78
2023/06/12 05:07:13;;;;;;;7.70;3.30;;;;;;;;;;5059190;28;20069;-78
2023/06/12 05:09:39;;;;;;;9.40;3.60;;;;;;;;;;5051768;28;20041;-78
2023/06/12 05:12:06;;;;;;;6.10;3.10;;;;;;;;;;5051909;28;20041;-78
2023/06/12 05:14:34;;;;;;;7.30;3.17;;;;;;;;;;5051711;28;20075;-78
2023/06/12 05:17:00;;;;;;;6.55;3.25;;;;;;;;;;5058444;28;20037;-78
2023/06/12 05:19:27;;;;;;;5.93;3.20;;;;;;;;;;5051689;28;20041;-79
2023/06/12 05:21:53;;;;;;;6.75;3.20;;;;;;;;;;5018496;28;20041;-79
2023/06/12 05:24:20;;;;;;;7.28;3.05;;;;;;;;;;5034778;28;20502;-79
2023/06/12 05:26:46;;;;;;;6.57;3.38;;;;;;;;;;5052325;28;20067;-78
2023/06/12 05:29:12;;;;;;;7.25;3.45;;;;;;;;;;5044538;28;20039;-79
2023/06/12 05:31:38;;;;;;;6.07;3.28;;;;;;;;;;5050861;28;20074;-78
2023/06/12 05:34:04;;;;;;;6.80;3.35;;;;;;;;;;5020895;28;20041;-78
2023/06/12 05:36:31;;;;;;;5.80;3.05;;;;;;;;;;5055014;28;20033;-78
2023/06/12 05:38:57;;;;;;;8.80;3.72;;;;;;;;;;5055015;28;20117;-78
2023/06/12 05:41:23;;;;;;;6.95;3.45;;;;;;;;;;5052566;28;20052;-79
2023/06/12 05:43:49;;;;;;;5.05;3.20;;;;;;;;;;5034087;28;20055;-79
2023/06/12 05:46:15;;;;;;;5.25;3.30;;;;;;;;;;5034561;28;20040;-80
2023/06/12 05:48:41;;;;;;;5.68;3.30;;;;;;;;;;5034301;28;20056;-79
2023/06/12 05:51:07;;;;;;;4.93;3.38;;;;;;;;;;5050949;28;20053;-79
2023/06/12 05:53:34;;;;;;;5.07;3.08;;;;;;;;;;5034143;28;20052;-79
2023/06/12 05:56:00;;;;;;;12.32;3.50;;;;;;;;;;5052141;28;20071;-79
2023/06/12 05:58:27;;;;;;;7.07;3.33;;;;;;;;;;5062329;28;20041;-82
2023/06/12 06:00:56;;;;;;;5.32;3.08;;;;;;;;;;5049495;28;20080;-82
2023/06/12 06:03:24;;;;;;;7.60;3.47;;;;;;;;;;5017157;28;20033;-82
2023/06/12 06:05:50;;;;;;;5.00;3.17;;;;;;;;;;5049755;28;20123;-82
2023/06/12 06:08:16;;;;;;;5.00;3.20;;;;;;;;;;5050014;28;20041;-83
2023/06/12 06:10:42;;;;;;;9.40;3.65;;;;;;;;;;5049789;28;20047;-82
2023/06/12 06:13:09;;;;;;;6.68;3.20;;;;;;;;;;5050165;28;20493;-83
2023/06/12 06:15:35;;;;;;;8.48;3.53;;;;;;;;;;5034205;28;20509;-80
2023/06/12 06:18:01;;;;;;;8.95;3.47;;;;;;;;;;5060823;28;20405;-83
2023/06/12 06:20:28;;;;;;;7.25;3.13;;;;;;;;;;5053006;28;20045;-83
2023/06/12 06:22:54;;;;;;;6.07;3.45;;;;;;;;;;5050490;28;20041;-81
2023/06/12 06:25:20;;;;;;;5.85;3.15;;;;;;;;;;5050968;28;20125;-81
2023/06/12 06:27:46;;;;;;;9.38;3.10;;;;;;;;;;5037441;28;20094;-81
2023/06/12 06:30:12;;;;;;;5.43;3.30;;;;;;;;;;5057168;28;20033;-81
2023/06/12 06:32:38;;;;;;;6.03;3.40;;;;;;;;;;5017923;28;20124;-81
2023/06/12 06:35:04;;;;;;;7.68;3.60;;;;;;;;;;5040719;28;20037;-80
2023/06/12 06:37:31;;;;;;;5.90;3.55;;;;;;;;;;5072079;28;20445;-82
2023/06/12 06:39:57;;;;;;;10.63;3.67;;;;;;;;;;5055401;28;20073;-81
2023/06/12 06:42:23;;;;;;;9.05;3.38;;;;;;;;;;5058165;28;20400;-82
2023/06/12 06:44:49;;;;;;;6.45;3.80;;;;;;;;;;5053675;28;20040;-81
2023/06/12 06:47:16;;;;;;;9.52;3.40;;;;;;;;;;5066001;28;20044;-81
2023/06/12 06:49:42;;;;;;;6.97;3.28;;;;;;;;;;5044353;28;20044;-82
2023/06/12 06:52:08;;;;;;;6.25;3.60;;;;;;;;;;5060311;28;20049;-82
2023/06/12 06:54:34;;;;;;;8.38;3.38;;;;;;;;;;5070852;28;20093;-82
2023/06/12 06:57:01;;;;;;;14.98;4.28;;;;;;;;;;5056035;28;20045;-81
2023/06/12 06:59:27;;;;;;;6.07;3.08;;;;;;;;;;5066339;28;20076;-81
2023/06/12 07:01:53;;;;;;;7.07;3.30;;;;;;;;;;5040747;28;20052;-82
2023/06/12 07:04:19;;;;;;;5.82;3.30;;;;;;;;;;5072010;28;20083;-82
2023/06/12 07:06:45;;;;;;;7.75;3.60;;;;;;;;;;5040614;28;20401;-82
2023/06/12 07:09:14;;;;;;;7.53;3.22;;;;;;;;;;5053462;28;20048;-81
2023/06/12 07:11:40;;;;;;;8.45;3.33;;;;;;;;;;5040277;28;20047;-81
2023/06/12 07:14:06;;;;;;;6.50;3.35;;;;;;;;;;5052755;28;20102;-82
2023/06/12 07:16:32;;;;;;;6.45;3.25;;;;;;;;;;5036491;28;20037;-81
2023/06/12 07:18:58;;;;;;;7.28;3.30;;;;;;;;;;5036902;28;20490;-82
2023/06/12 07:21:26;;;;;;;9.55;3.20;;;;;;;;;;5057673;28;20064;-82
2023/06/12 07:23:52;;;;;;;6.30;3.20;;;;;;;;;;5052854;28;20052;-82
2023/06/12 07:26:19;;;;;;;9.18;3.30;;;;;;;;;;5037201;28;20044;-82
2023/06/12 07:28:45;;;;;;;3.83;3.10;;;;;;;;;;5052542;28;20128;-82
2023/06/12 07:31:11;;;;;;;5.03;3.35;;;;;;;;;;5042548;28;20075;-81
2023/06/12 07:33:37;;;;;;;4.80;2.65;;;;;;;;;;5053136;28;20045;-81
2023/06/12 07:36:03;;;;;;;7.97;3.10;;;;;;;;;;5053048;28;20045;-82
2023/06/12 07:38:29;;;;;;;8.43;3.30;;;;;;;;;;5053350;28;20056;-82
2023/06/12 07:40:55;;;;;;;5.78;2.97;;;;;;;;;;5049356;28;20041;-82
2023/06/12 07:43:21;;;;;;;4.75;3.30;;;;;;;;;;5045351;28;20508;-82
2023/06/12 07:45:48;;;;;;;8.38;3.42;;;;;;;;;;5035695;28;20045;-82
2023/06/12 07:48:14;;;;;;;7.55;3.50;;;;;;;;;;5052770;28;20124;-82
2023/06/12 07:50:42;;;;;;;8.77;3.30;;;;;;;;;;5062837;28;20048;-82
2023/06/12 07:53:08;;;;;;;8.10;3.10;;;;;;;;;;5054532;28;20041;-81
2023/06/12 07:55:35;;;;;;;7.38;3.15;;;;;;;;;;5053240;28;20045;-82
2023/06/12 07:58:01;;;;;;;10.55;3.30;;;;;;;;;;5036416;28;20055;-82
2023/06/12 08:00:27;;;;;;;8.82;3.50;;;;;;;;;;5054410;28;20036;-82
2023/06/12 08:02:59;;;;;;;7.43;3.28;;;;;;;;;;5053194;28;20049;-82
2023/06/12 08:05:26;;;;;;;8.38;3.25;;;;;;;;;;5053335;28;20087;-82
2023/06/12 08:07:52;;;;;;;7.10;3.13;;;;;;;;;;5052449;28;20037;-81
2023/06/12 08:10:18;;;;;;;7.20;3.70;;;;;;;;;;5052241;28;20055;-81
2023/06/12 08:12:44;;;;;;;5.78;3.38;;;;;;;;;;5054122;28;20064;-82
2023/06/12 08:15:11;;;;;;;9.73;3.70;;;;;;;;;;5035144;28;20041;-82
2023/06/12 08:17:41;;;;;;;4.20;3.10;;;;;;;;;;5053980;28;20402;-87
2023/06/12 08:20:09;;;;;;;6.85;3.35;;;;;;;;;;5054418;28;20051;-87
2023/06/12 08:22:35;;;;;;;8.65;3.13;;;;;;;;;;5060234;28;20045;-87
2023/06/12 08:25:03;;;;;;;7.03;2.97;;;;;;;;;;5054758;28;20037;-88
2023/06/12 08:27:29;;;;;;;6.43;3.38;;;;;;;;;;5055071;28;20474;-87
2023/06/12 08:29:55;;;;;;;5.22;3.20;;;;;;;;;;5037570;28;20053;-88
2023/06/12 08:32:22;;;;;;;4.88;2.97;;;;;;;;;;5037688;28;20131;-87
2023/06/12 08:34:48;;;;;;;7.97;3.30;;;;;;;;;;5055982;28;20072;-88
2023/06/12 08:37:14;;;;;;;8.15;3.17;;;;;;;;;;5054691;28;20551;-85
2023/06/12 08:39:40;;;;;;;5.85;2.90;;;;;;;;;;5054490;28;20068;-86
2023/06/12 08:42:10;;;;;;;11.15;3.15;;;;;;;;;;5055967;28;20045;-85
2023/06/12 08:44:36;;;;;;;8.52;3.30;;;;;;;;;;5039230;28;20198;-87
2023/06/12 08:47:03;;;;;;;6.70;3.40;;;;;;;;;;5053327;28;20033;-88
2023/06/12 08:49:32;;;;;;;9.63;3.20;;;;;;;;;;5051270;28;20469;-87
2023/06/12 08:52:00;;;;;;;9.75;3.20;;;;;;;;;;5035082;28;20045;-88
2023/06/12 08:54:26;;;;;;;4.68;3.20;;;;;;;;;;5036465;28;20077;-87
2023/06/12 08:56:54;;;;;;;7.00;3.13;;;;;;;;;;5038423;28;20040;-87
2023/06/12 08:59:21;;;;;;;7.20;3.60;;;;;;;;;;5055982;28;20048;-86
2023/06/12 09:01:52;;;;;;;8.52;3.85;;;;;;;;;;5036160;28;20044;-87
2023/06/12 09:04:28;;;;;;;6.97;3.70;;;;;;;;;;5052617;28;20095;-86
2023/06/12 09:07:01;;;;;;;7.75;3.53;;;;;;;;;;5052701;28;20064;-87
2023/06/12 09:09:38;;;;;;;7.05;3.45;;;;;;;;;;5041819;28;20052;-87
2023/06/12 09:12:06;;;;;;;5.70;3.20;;;;;;;;;;5056060;28;20083;-87
2023/06/12 09:14:36;;;;;;;7.55;3.50;;;;;;;;;;5062315;28;20045;-88
2023/06/12 09:17:02;;;;;;;7.68;3.58;;;;;;;;;;5052506;28;20041;-86
2023/06/12 09:19:36;;;;;;;6.32;3.20;;;;;;;;;;5052680;28;20405;-86
2023/06/12 09:22:02;;;;;;;7.45;3.30;;;;;;;;;;5033561;28;20067;-87
2023/06/12 09:24:28;;;;;;;6.57;3.20;;;;;;;;;;5035258;28;20091;-87
2023/06/12 09:26:57;;;;;;;6.80;3.38;;;;;;;;;;5052893;28;20509;-87
2023/06/12 09:29:30;;;;;;;7.97;3.40;;;;;;;;;;5053046;28;20428;-85
2023/06/12 09:32:00;;;;;;;4.95;3.40;;;;;;;;;;5047026;28;20044;-87
2023/06/12 09:34:26;;;;;;;7.60;3.33;;;;;;;;;;5044287;28;20047;-87
2023/06/12 09:36:53;;;;;;;6.72;3.60;;;;;;;;;;5037277;28;20040;-85
2023/06/12 09:39:37;;;;;;;6.78;3.40;;;;;;;;;;5053474;28;20363;-86
2023/06/12 09:42:04;;;;;;;9.55;3.28;;;;;;;;;;5051414;28;20044;-86
2023/06/12 09:44:30;;;;;;;9.25;3.38;;;;;;;;;;5052893;28;20056;-86
2023/06/12 09:47:03;;;;;;;8.25;3.63;;;;;;;;;;5052030;28;20045;-87
2023/06/12 09:49:30;;;;;;;7.53;3.30;;;;;;;;;;5051285;28;20055;-84
2023/06/12 09:52:00;;;;;;;7.97;3.40;;;;;;;;;;5053117;28;20049;-85
2023/06/12 09:54:28;;;;;;;7.55;3.55;;;;;;;;;;5055802;28;20079;-86
2023/06/12 09:56:57;;;;;;;6.05;3.30;;;;;;;;;;5035256;28;20080;-86
2023/06/12 09:59:27;;;;;;;5.43;3.25;;;;;;;;;;5034270;28;20075;-87
2023/06/12 10:01:55;;;;;;;6.55;3.50;;;;;;;;;;5034867;28;20087;-86
2023/06/12 10:04:41;;;;;;;9.75;3.55;;;;;;;;;;5050473;28;20521;-87
2023/06/12 10:07:11;;;;;;;7.60;3.40;;;;;;;;;;5046384;28;20041;-85
2023/06/12 10:09:39;;;;;;;6.25;3.40;;;;;;;;;;5051007;28;20041;-87
2023/06/12 10:12:06;;;;;;;4.80;3.42;;;;;;;;;;5051542;28;20394;-87
2023/06/12 10:14:33;;;;;;;4.88;3.03;;;;;;;;;;5034238;28;20037;-86
2023/06/12 10:16:59;;;;;;;6.78;3.10;;;;;;;;;;5064921;28;20045;-86
2023/06/12 10:19:26;;;;;;;6.68;3.72;;;;;;;;;;5050189;28;20045;-86
2023/06/12 10:21:53;;;;;;;7.53;3.50;;;;;;;;;;5051041;28;20398;-86
2023/06/12 10:24:20;;;;;;;7.18;3.58;;;;;;;;;;5050543;28;20049;-86
2023/06/12 10:26:47;;;;;;;4.63;3.47;;;;;;;;;;5045309;28;20049;-87
2023/06/12 10:29:32;;;;;;;6.13;3.65;;;;;;;;;;5051088;28;20029;-87
2023/06/12 10:32:06;;;;;;;5.40;3.10;;;;;;;;;;5034368;28;20048;-87
2023/06/12 10:34:42;;;;;;;6.07;2.97;;;;;;;;;;5050345;28;20098;-87
2023/06/12 10:37:21;;;;;;;6.78;3.30;;;;;;;;;;5051861;28;20084;-87
2023/06/12 10:39:48;;;;;;;6.00;3.70;;;;;;;;;;5054086;28;20167;-87
2023/06/12 10:42:14;;;;;;;6.53;3.55;;;;;;;;;;5054569;28;20158;-87
2023/06/12 10:44:42;;;;;;;9.10;3.60;;;;;;;;;;5054652;28;20091;-87
2023/06/12 10:47:18;;;;;;;8.52;3.80;;;;;;;;;;5054729;28;20512;-87
2023/06/12 10:49:58;;;;;;;6.22;4.18;;;;;;;;;;5040565;28;20052;-88
2023/06/12 10:52:25;;;;;;;7.10;4.07;;;;;;;;;;5054168;28;20134;-87
2023/06/12 10:55:09;;;;;;;5.82;3.55;;;;;;;;;;5054570;28;20044;-87
2023/06/12 10:57:36;;;;;;;6.70;3.88;;;;;;;;;;5059883;28;20063;-88
2023/06/12 11:00:05;;;;;;;5.82;3.97;;;;;;;;;;5037525;28;20033;-87
2023/06/12 11:02:31;;;;;;;9.35;4.82;;;;;;;;;;5053539;28;20033;-88
2023/06/12 11:05:03;;;;;;;6.38;4.30;;;;;;;;;;5081943;28;20072;-86
2023/06/12 11:07:31;;;;;;;6.32;4.32;;;;;;;;;;5056188;28;20110;-86
2023/06/12 11:09:57;;;;;;;7.75;4.38;;;;;;;;;;5083648;28;20071;-86
2023/06/12 11:12:23;;;;;;;9.88;4.30;;;;;;;;;;5053456;28;20033;-86
2023/06/12 11:14:50;;;;;;;7.38;4.90;;;;;;;;;;5052849;28;20045;-86
2023/06/12 11:17:16;;;;;;;8.32;4.43;;;;;;;;;;5050603;28;20037;-87
2023/06/12 11:19:42;;;;;;;10.63;4.60;;;;;;;;;;5051986;28;20041;-88
2023/06/12 11:22:08;;;;;;;8.60;4.82;;;;;;;;;;5053985;28;20489;-87
2023/06/12 11:24:35;;;;;;;7.05;4.65;;;;;;;;;;5053162;28;20055;-87
2023/06/12 11:27:02;;;;;;;5.03;4.50;;;;;;;;;;5035690;28;20545;-86
2023/06/12 11:29:35;;;;;;;4.63;3.90;;;;;;;;;;5086868;28;20041;-86
2023/06/12 11:32:02;;;;;;;5.85;4.25;;;;;;;;;;5060162;28;20072;-86
2023/06/12 11:34:35;;;;;;;6.28;4.53;;;;;;;;;;5047477;28;20571;-86
2023/06/12 11:37:14;;;;;;;5.70;4.47;;;;;;;;;;5082012;28;20048;-86
2023/06/12 11:39:40;;;;;;;7.28;4.55;;;;;;;;;;5065220;28;20068;-85
2023/06/12 11:42:13;;;;;;;8.77;4.43;;;;;;;;;;5053329;28;20068;-87
2023/06/12 11:44:39;;;;;;;10.00;4.60;;;;;;;;;;5052706;28;20063;-86
2023/06/12 11:47:06;;;;;;;6.53;5.13;;;;;;;;;;5054281;28;20118;-87
2023/06/12 11:49:34;;;;;;;7.95;5.00;;;;;;;;;;5052640;28;20055;-87
2023/06/12 11:52:00;;;;;;;5.95;4.93;;;;;;;;;;5036524;28;20120;-86
2023/06/12 11:54:27;;;;;;;6.82;4.80;;;;;;;;;;5043305;28;20037;-85
2023/06/12 11:56:53;;;;;;;9.63;5.20;;;;;;;;;;5037850;28;20045;-86
2023/06/12 11:59:21;;;;;;;7.70;4.95;;;;;;;;;;5052062;28;20036;-85
2023/06/12 12:01:48;;;;;;;5.75;4.88;;;;;;;;;;5053057;28;20041;-85
2023/06/12 12:04:17;;;;;;;6.95;4.75;;;;;;;;;;5070169;28;20051;-85
2023/06/12 12:06:50;;;;;;;9.15;4.85;;;;;;;;;;5037150;28;20162;-85
2023/06/12 12:09:23;;;;;;;5.57;4.95;;;;;;;;;;5055099;28;20044;-85
2023/06/12 12:11:49;;;;;;;7.50;4.88;;;;;;;;;;5052357;28;20094;-83
2023/06/12 12:14:15;;;;;;;8.52;4.80;;;;;;;;;;5051968;28;20127;-85
2023/06/12 12:16:43;;;;;;;6.07;4.65;;;;;;;;;;5043654;28;20514;-86
2023/06/12 12:19:25;;;;;;;7.78;4.88;;;;;;;;;;5067753;28;20037;-85
2023/06/12 12:21:52;;;;;;;7.32;5.07;;;;;;;;;;5052304;28;20049;-85
2023/06/12 12:24:18;;;;;;;10.07;5.40;;;;;;;;;;5052980;28;20045;-85
2023/06/12 12:26:51;;;;;;;11.38;5.53;;;;;;;;;;5053545;28;20045;-86
2023/06/12 12:29:21;;;;;;;7.50;5.35;;;;;;;;;;5053595;28;20094;-85
2023/06/12 12:31:47;;;;;;;8.82;5.95;;;;;;;;;;5051808;28;20037;-85
2023/06/12 12:34:13;;;;;;;7.88;5.57;;;;;;;;;;5053161;28;20037;-85
2023/06/12 12:36:40;;;;;;;7.00;5.57;;;;;;;;;;5051260;28;20098;-87
2023/06/12 12:39:06;;;;;;;9.88;6.10;;;;;;;;;;5053107;28;20440;-85
2023/06/12 12:41:33;;;;;;;9.45;5.97;;;;;;;;;;5051126;28;20505;-85
2023/06/12 12:43:59;;;;;;;6.07;5.47;;;;;;;;;;5051227;28;20142;-86
2023/06/12 12:46:25;;;;;;;8.95;6.30;;;;;;;;;;5034431;28;20029;-84
2023/06/12 12:48:52;;;;;;;8.90;5.85;;;;;;;;;;5055662;28;20052;-85
2023/06/12 12:51:18;;;;;;;11.10;6.53;;;;;;;;;;5058194;28;20049;-84
2023/06/12 12:53:45;;;;;;;8.90;6.43;;;;;;;;;;5051867;28;20045;-85
2023/06/12 12:56:13;;;;;;;9.38;6.82;;;;;;;;;;5052609;28;20116;-86
2023/06/12 12:58:39;;;;;;;7.25;6.10;;;;;;;;;;5051845;28;20041;-86
2023/06/12 13:01:05;;;;;;;6.30;5.70;;;;;;;;;;5053178;28;20052;-83
2023/06/12 13:03:36;;;;;;;9.68;5.88;;;;;;;;;;5053521;28;20041;-84
2023/06/12 13:06:06;;;;;;;6.97;5.50;;;;;;;;;;5052567;28;20375;-86
2023/06/12 13:08:34;;;;;;;8.88;5.93;;;;;;;;;;5052449;28;20043;-84
2023/06/12 13:11:01;;;;;;;8.35;5.63;;;;;;;;;;5058473;28;20089;-86
2023/06/12 13:13:27;;;;;;;8.73;5.95;;;;;;;;;;5052137;28;20049;-85
2023/06/12 13:15:53;;;;;;;13.07;6.38;;;;;;;;;;5019072;28;20049;-85
2023/06/12 13:18:19;;;;;;;8.18;6.28;;;;;;;;;;5052386;28;20049;-86
2023/06/12 13:20:45;;;;;;;8.50;5.95;;;;;;;;;;5036250;28;20320;-86
2023/06/12 13:23:12;;;;;;;9.73;6.20;;;;;;;;;;5051752;28;20055;-86
2023/06/12 13:25:40;;;;;;;7.30;5.60;;;;;;;;;;5051669;28;20044;-85
2023/06/12 13:28:06;;;;;;;10.02;5.80;;;;;;;;;;5035457;28;20048;-86
2023/06/12 13:30:33;;;;;;;17.90;5.82;;;;;;;;;;5082661;28;20433;-86
2023/06/12 13:32:59;;;;;;;7.43;5.18;;;;;;;;;;5054747;28;20107;-86
2023/06/12 13:35:25;;;;;;;9.48;5.57;;;;;;;;;;5051464;28;20119;-85
2023/06/12 13:37:51;;;;;;;6.07;5.30;;;;;;;;;;5051386;28;20400;-86
2023/06/12 13:40:17;;;;;;;9.18;5.45;;;;;;;;;;5051726;28;20053;-86
2023/06/12 13:42:44;;;;;;;6.75;5.03;;;;;;;;;;5050740;28;20132;-85
2023/06/12 13:45:11;;;;;;;9.20;5.30;;;;;;;;;;5051536;28;20091;-85
2023/06/12 13:47:38;;;;;;;7.43;4.63;;;;;;;;;;5051219;28;20112;-85
2023/06/12 13:50:10;;;;;;;7.15;4.40;;;;;;;;;;5033613;28;20053;-86
2023/06/12 13:52:40;;;;;;;8.07;4.75;;;;;;;;;;5033907;28;20076;-87
2023/06/12 13:55:06;;;;;;;8.48;4.70;;;;;;;;;;5051327;28;20041;-87
2023/06/12 13:57:33;;;;;;;8.90;5.13;;;;;;;;;;5062772;28;20393;-87
2023/06/12 13:59:59;;;;;;;6.85;5.05;;;;;;;;;;5033341;28;20041;-87
2023/06/12 14:02:25;;;;;;;5.68;4.68;;;;;;;;;;5049520;28;20037;-86
2023/06/12 14:04:51;;;;;;;7.20;4.90;;;;;;;;;;5066630;28;20045;-87
2023/06/12 14:07:17;;;;;;;9.15;5.43;;;;;;;;;;5040260;28;20076;-87
2023/06/12 14:09:44;;;;;;;7.35;5.00;;;;;;;;;;5050689;28;20409;-86
2023/06/12 14:12:10;;;;;;;8.48;4.80;;;;;;;;;;5049757;28;20041;-87
2023/06/12 14:14:36;;;;;;;5.35;4.85;;;;;;;;;;5050448;28;20044;-87
2023/06/12 14:17:02;;;;;;;6.80;5.10;;;;;;;;;;5050990;28;20043;-87
2023/06/12 14:19:28;;;;;;;6.13;5.07;;;;;;;;;;5051321;28;20052;-86
2023/06/12 14:21:54;;;;;;;8.25;5.30;;;;;;;;;;5062435;28;20175;-87
2023/06/12 14:24:20;;;;;;;7.45;5.47;;;;;;;;;;5050673;28;20120;-86
2023/06/12 14:26:47;;;;;;;8.95;5.20;;;;;;;;;;5045448;28;20042;-87
2023/06/12 14:29:13;;;;;;;8.45;5.10;;;;;;;;;;5060164;28;20476;-87
2023/06/12 14:31:39;;;;;;;6.70;5.07;;;;;;;;;;5033103;28;20037;-87
2023/06/12 14:34:05;;;;;;;6.82;5.05;;;;;;;;;;5050213;28;20048;-87
2023/06/12 14:36:31;;;;;;;5.68;4.70;;;;;;;;;;5050297;28;20041;-86
2023/06/12 14:38:57;;;;;;;8.57;4.82;;;;;;;;;;5049411;28;20124;-88
2023/06/12 14:41:23;;;;;;;6.55;4.70;;;;;;;;;;5050607;28;20424;-86
2023/06/12 14:43:49;;;;;;;6.65;4.85;;;;;;;;;;5049908;28;20048;-87
2023/06/12 14:46:15;;;;;;;9.88;5.15;;;;;;;;;;5042695;28;20482;-87